createdAt,value
2017-06-09T00:00:12.020Z,100529.06
2017-06-09T00:02:42.478Z,100529.54
2017-06-09T00:05:12.421Z,100531.73
2017-06-09T00:07:42.274Z,100526.61
2017-06-09T00:10:12.248Z,100524.78
2017-06-09T00:12:42.192Z,100519.92
2017-06-09T00:15:12.294Z,100520.61
2017-06-09T00:17:42.185Z,100512.80
2017-06-09T00:20:12.037Z,100512.66
2017-06-09T00:22:42.224Z,100512.28
2017-06-09T00:25:12.221Z,100505.82
2017-06-09T00:27:42.122Z,100504.71
2017-06-09T00:30:11.981Z,100507.16
2017-06-09T00:32:41.877Z,100497.58
2017-06-09T00:35:11.765Z,100486.98
2017-06-09T00:37:41.620Z,100481.84
2017-06-09T00:40:11.506Z,100481.51
2017-06-09T00:42:41.383Z,100475.86
2017-06-09T00:45:11.300Z,100471.37
2017-06-09T00:47:41.184Z,100472.39
2017-06-09T00:50:11.047Z,100473.63
2017-06-09T00:52:40.921Z,100466.15
2017-06-09T00:55:10.795Z,100460.00
2017-06-09T00:57:40.690Z,100460.94
2017-06-09T01:00:10.600Z,100465.09
2017-06-09T01:02:40.499Z,100468.64
2017-06-09T01:05:10.345Z,100469.80
2017-06-09T01:07:40.221Z,100465.44
2017-06-09T01:10:10.098Z,100469.58
2017-06-09T01:12:39.983Z,100467.02
2017-06-09T01:15:09.867Z,100463.09
2017-06-09T01:17:39.716Z,100456.97
2017-06-09T01:20:09.626Z,100454.41
2017-06-09T01:22:39.479Z,100455.69
2017-06-09T01:25:09.333Z,100454.83
2017-06-09T01:27:39.224Z,100445.55
2017-06-09T01:30:09.070Z,100442.61
2017-06-09T01:32:38.947Z,100438.03
2017-06-09T01:35:08.801Z,100435.67
2017-06-09T01:37:38.754Z,100422.94
2017-06-09T01:40:08.252Z,100422.52
2017-06-09T01:42:38.119Z,100415.47
2017-06-09T01:45:08.000Z,100415.25
2017-06-09T01:47:37.496Z,100411.36
2017-06-09T01:50:07.445Z,100412.00
2017-06-09T01:52:37.395Z,100406.80
2017-06-09T01:55:07.297Z,100401.11
2017-06-09T01:57:36.859Z,100411.19
2017-06-09T02:00:06.000Z,100414.05
2017-06-09T02:02:35.909Z,100418.55
2017-06-09T02:05:05.768Z,100415.04
2017-06-09T02:07:35.732Z,100408.75
2017-06-09T02:10:05.647Z,100411.36
2017-06-09T02:12:35.549Z,100410.94
2017-06-09T02:15:05.440Z,100412.69
2017-06-09T02:17:35.317Z,100416.91
2017-06-09T02:20:05.201Z,100413.37
2017-06-09T02:22:35.053Z,100414.79
2017-06-09T02:25:04.939Z,100412.17
2017-06-09T02:27:34.821Z,100409.59
2017-06-09T02:30:04.678Z,100405.08
2017-06-09T02:32:34.561Z,100400.36
2017-06-09T02:35:04.405Z,100410.16
2017-06-09T02:37:34.285Z,100422.55
2017-06-09T02:40:04.205Z,100429.77
2017-06-09T02:42:34.147Z,100432.67
2017-06-09T02:45:04.015Z,100433.09
2017-06-09T02:47:33.877Z,100425.84
2017-06-09T02:50:03.753Z,100430.23
2017-06-09T02:52:33.598Z,100426.94
2017-06-09T02:55:03.571Z,100421.89
2017-06-09T02:57:33.422Z,100415.31
2017-06-09T03:00:03.289Z,100421.83
2017-06-09T03:02:33.175Z,100427.73
2017-06-09T03:05:03.055Z,100422.11
2017-06-09T03:07:32.995Z,100420.70
2017-06-09T03:10:02.890Z,100417.86
2017-06-09T03:12:32.818Z,100422.78
2017-06-09T03:15:02.681Z,100419.73
2017-06-09T03:17:33.323Z,100419.91
2017-06-09T03:20:03.187Z,100418.93
2017-06-09T03:22:33.043Z,100418.77
2017-06-09T03:25:02.962Z,100425.12
2017-06-09T03:27:32.810Z,100423.84
2017-06-09T03:30:02.720Z,100427.03
2017-06-09T03:32:37.945Z,100421.38
2017-06-09T03:35:07.903Z,100417.55
2017-06-09T03:37:37.778Z,100424.95
2017-06-09T03:40:07.666Z,100427.15
2017-06-09T03:42:38.564Z,100417.66
2017-06-09T03:45:10.617Z,100408.28
2017-06-09T03:47:40.557Z,100408.87
2017-06-09T03:50:10.411Z,100406.89
2017-06-09T03:52:40.268Z,100408.24
2017-06-09T03:55:10.310Z,100395.91
2017-06-09T03:57:40.201Z,100395.57
2017-06-09T04:00:10.131Z,100392.25
2017-06-09T04:02:39.988Z,100382.67
2017-06-09T04:05:09.839Z,100380.16
2017-06-09T04:07:39.720Z,100377.86
2017-06-09T04:10:09.630Z,100374.11
2017-06-09T04:12:39.552Z,100374.78
2017-06-09T04:15:09.435Z,100377.22
2017-06-09T04:17:39.293Z,100378.27
2017-06-09T04:20:09.168Z,100371.53
2017-06-09T04:22:39.033Z,100367.28
2017-06-09T04:25:08.948Z,100364.72
2017-06-09T04:27:38.826Z,100364.86
2017-06-09T04:30:08.689Z,100358.38
2017-06-09T04:32:38.562Z,100364.29
2017-06-09T04:35:08.433Z,100364.55
2017-06-09T04:37:38.331Z,100367.33
2017-06-09T04:40:08.185Z,100361.57
2017-06-09T04:42:38.058Z,100359.39
2017-06-09T04:45:07.935Z,100358.43
2017-06-09T04:47:37.801Z,100360.16
2017-06-09T04:50:07.737Z,100356.83
2017-06-09T04:52:37.596Z,100355.44
2017-06-09T04:55:07.468Z,100357.27
2017-06-09T04:57:37.949Z,100355.44
2017-06-09T05:00:07.809Z,100359.34
2017-06-09T05:02:37.718Z,100355.28
2017-06-09T05:05:07.571Z,100361.27
2017-06-09T05:07:38.206Z,100354.53
2017-06-09T05:10:08.075Z,100354.14
2017-06-09T05:12:37.960Z,100353.94
2017-06-09T05:15:07.837Z,100351.32
2017-06-09T05:17:37.713Z,100348.72
2017-06-09T05:20:07.459Z,100352.27
2017-06-09T05:22:37.310Z,100351.73
2017-06-09T05:25:06.984Z,100355.86
2017-06-09T05:27:36.719Z,100355.43
2017-06-09T05:30:06.591Z,100360.49
2017-06-09T05:32:36.323Z,100362.77
2017-06-09T05:35:06.191Z,100360.62
2017-06-09T05:37:36.041Z,100363.22
2017-06-09T05:40:05.908Z,100363.41
2017-06-09T05:42:35.764Z,100361.59
2017-06-09T05:45:05.681Z,100363.81
2017-06-09T05:47:36.218Z,100370.83
2017-06-09T05:50:06.076Z,100363.38
2017-06-09T05:52:35.956Z,100365.87
2017-06-09T05:55:05.807Z,100365.41
2017-06-09T05:57:35.799Z,100364.41
2017-06-09T06:00:05.649Z,100359.38
2017-06-09T06:02:35.496Z,100352.05
2017-06-09T06:05:05.375Z,100348.56
2017-06-09T06:07:35.228Z,100349.86
2017-06-09T06:10:05.133Z,100342.81
2017-06-09T06:12:34.991Z,100335.61
2017-06-09T06:15:04.869Z,100337.28
2017-06-09T06:17:34.767Z,100332.92
2017-06-09T06:20:04.997Z,100333.02
2017-06-09T06:22:34.895Z,100331.59
2017-06-09T06:25:04.760Z,100340.08
2017-06-09T06:27:34.667Z,100344.26
2017-06-09T06:30:04.525Z,100340.65
2017-06-09T06:32:34.375Z,100333.12
2017-06-09T06:35:04.275Z,100331.02
2017-06-09T06:37:34.179Z,100330.59
2017-06-09T06:40:04.082Z,100336.84
2017-06-09T06:42:33.940Z,100337.75
2017-06-09T06:45:03.827Z,100335.26
2017-06-09T06:47:33.707Z,100330.73
2017-06-09T06:50:03.558Z,100334.86
2017-06-09T06:52:33.455Z,100330.46
2017-06-09T06:55:03.305Z,100330.58
2017-06-09T06:57:33.162Z,100321.52
2017-06-09T07:00:03.044Z,100326.24
2017-06-09T07:02:32.906Z,100335.06
2017-06-09T07:05:02.947Z,100330.62
2017-06-09T07:07:32.929Z,100321.91
2017-06-09T07:10:02.819Z,100330.01
2017-06-09T07:12:32.680Z,100323.42
2017-06-09T07:15:02.537Z,100318.55
2017-06-09T07:17:32.422Z,100316.41
2017-06-09T07:20:02.293Z,100306.67
2017-06-09T07:22:32.188Z,100304.23
2017-06-09T07:25:02.052Z,100298.49
2017-06-09T07:27:31.953Z,100301.14
2017-06-09T07:30:01.841Z,100293.86
2017-06-09T07:32:31.711Z,100292.84
2017-06-09T07:35:01.624Z,100290.63
2017-06-09T07:37:36.049Z,100295.66
2017-06-09T07:40:05.927Z,100292.09
2017-06-09T07:42:35.784Z,100293.53
2017-06-09T07:45:05.633Z,100288.71
2017-06-09T07:47:35.715Z,100282.89
2017-06-09T07:50:05.580Z,100285.64
2017-06-09T07:52:35.507Z,100277.92
2017-06-09T07:55:05.360Z,100277.27
2017-06-09T07:57:35.264Z,100283.67
2017-06-09T08:00:05.160Z,100283.65
2017-06-09T08:02:35.034Z,100279.35
2017-06-09T08:05:04.923Z,100275.64
2017-06-09T08:07:34.913Z,100267.45
2017-06-09T08:10:05.376Z,100260.52
2017-06-09T08:12:35.224Z,100262.41
2017-06-09T08:15:05.110Z,100249.28
2017-06-09T08:17:35.220Z,100241.61
2017-06-09T08:20:05.151Z,100247.27
2017-06-09T08:22:35.075Z,100248.74
2017-06-09T08:25:04.944Z,100243.83
2017-06-09T08:27:34.794Z,100237.36
2017-06-09T08:30:04.661Z,100243.94
2017-06-09T08:32:34.550Z,100239.71
2017-06-09T08:35:04.446Z,100233.75
2017-06-09T08:37:34.299Z,100231.33
2017-06-09T08:40:04.186Z,100223.52
2017-06-09T08:42:34.036Z,100221.94
2017-06-09T08:45:03.920Z,100218.09
2017-06-09T08:47:33.799Z,100218.77
2017-06-09T08:50:03.647Z,100213.52
2017-06-09T08:52:33.549Z,100217.25
2017-06-09T08:55:03.419Z,100208.26
2017-06-09T08:57:33.296Z,100198.83
2017-06-09T09:00:03.174Z,100195.88
2017-06-09T09:02:33.968Z,100187.73
2017-06-09T09:05:03.863Z,100199.86
2017-06-09T09:07:33.716Z,100195.48
2017-06-09T09:10:03.632Z,100201.44
2017-06-09T09:12:33.480Z,100189.45
2017-06-09T09:15:03.386Z,100189.66
2017-06-09T09:17:36.339Z,100190.33
2017-06-09T09:20:06.263Z,100182.95
2017-06-09T09:22:36.109Z,100181.12
2017-06-09T09:25:05.990Z,100181.44
2017-06-09T09:27:35.884Z,100182.63
2017-06-09T09:30:05.741Z,100188.64
2017-06-09T09:32:35.632Z,100181.52
2017-06-09T09:35:05.531Z,100182.66
2017-06-09T09:37:35.416Z,100178.77
2017-06-09T09:40:05.291Z,100176.94
2017-06-09T09:42:35.153Z,100176.70
2017-06-09T09:45:05.056Z,100176.11
2017-06-09T09:47:34.912Z,100168.48
2017-06-09T09:50:04.763Z,100152.31
2017-06-09T09:52:34.633Z,100157.68
2017-06-09T09:55:04.497Z,100152.03
2017-06-09T09:57:34.400Z,100149.61
2017-06-09T10:00:03.907Z,100142.33
2017-06-09T10:02:33.769Z,100144.84
2017-06-09T10:05:03.659Z,100141.55
2017-06-09T10:07:33.511Z,100137.88
2017-06-09T10:10:03.410Z,100137.86
2017-06-09T10:12:33.276Z,100143.52
2017-06-09T10:15:03.186Z,100130.16
2017-06-09T10:17:33.050Z,100130.43
2017-06-09T10:20:02.899Z,100126.67
2017-06-09T10:22:32.780Z,100122.30
2017-06-09T10:25:02.647Z,100120.34
2017-06-09T10:27:32.596Z,100117.73
2017-06-09T10:30:02.475Z,100114.20
2017-06-09T10:32:32.338Z,100111.44
2017-06-09T10:35:02.226Z,100102.61
2017-06-09T10:37:32.096Z,100107.06
2017-06-09T10:40:02.040Z,100115.81
2017-06-09T10:42:31.888Z,100113.39
2017-06-09T10:45:01.992Z,100109.70
2017-06-09T10:47:31.896Z,100106.02
2017-06-09T10:50:01.756Z,100106.41
2017-06-09T10:52:31.653Z,100104.14
2017-06-09T10:55:01.495Z,100100.95
2017-06-09T10:57:31.373Z,100097.34
2017-06-09T11:00:01.323Z,100084.22
2017-06-09T11:02:31.208Z,100086.56
2017-06-09T11:05:01.102Z,100088.98
2017-06-09T11:07:30.965Z,100082.45
2017-06-09T11:10:00.884Z,100081.07
2017-06-09T11:12:30.360Z,100080.55
2017-06-09T11:14:59.881Z,100079.36
2017-06-09T11:17:29.766Z,100077.55
2017-06-09T11:19:59.253Z,100068.39
2017-06-09T11:22:29.189Z,100064.28
2017-06-09T11:24:59.058Z,100064.77
2017-06-09T11:27:28.439Z,100067.77
2017-06-09T11:29:58.338Z,100063.32
2017-06-09T11:32:27.473Z,100068.47
2017-06-09T11:34:57.382Z,100074.44
2017-06-09T11:37:26.883Z,100071.47
2017-06-09T11:39:56.746Z,100075.70
2017-06-09T11:42:26.271Z,100071.81
2017-06-09T11:44:56.132Z,100075.29
2017-06-09T11:47:25.719Z,100063.72
2017-06-09T11:49:55.228Z,100056.56
2017-06-09T11:52:24.750Z,100055.58
2017-06-09T11:54:54.631Z,100052.91
2017-06-09T11:57:24.485Z,100048.44
2017-06-09T11:59:54.007Z,100049.11
2017-06-09T12:02:22.947Z,100046.11
2017-06-09T12:04:52.795Z,100046.96
2017-06-09T12:07:22.682Z,100045.07
2017-06-09T12:09:52.388Z,100040.17
2017-06-09T12:12:22.299Z,100034.57
2017-06-09T12:14:52.179Z,100028.47
2017-06-09T12:17:22.041Z,100025.31
2017-06-09T12:19:51.911Z,100026.91
2017-06-09T12:22:21.800Z,100020.27
2017-06-09T12:24:51.704Z,100014.55
2017-06-09T12:27:21.561Z,100012.54
2017-06-09T12:29:51.444Z,100017.95
2017-06-09T12:32:21.335Z,100004.71
2017-06-09T12:34:51.203Z,100007.67
2017-06-09T12:37:21.240Z,100000.44
2017-06-09T12:39:51.085Z,99993.84
2017-06-09T12:42:20.949Z,100000.21
2017-06-09T12:44:50.827Z,99993.54
2017-06-09T12:47:20.667Z,99988.97
2017-06-09T12:49:50.575Z,99977.97
2017-06-09T12:52:20.473Z,99979.95
2017-06-09T12:54:50.373Z,99981.75
2017-06-09T12:57:20.223Z,99974.12
2017-06-09T12:59:50.104Z,99973.03
2017-06-09T13:02:19.966Z,99970.90
2017-06-09T13:04:49.812Z,99974.25
2017-06-09T13:07:19.716Z,99967.66
2017-06-09T13:09:49.567Z,99980.70
2017-06-09T13:12:19.463Z,99971.98
2017-06-09T13:14:49.342Z,99985.28
2017-06-09T13:17:19.180Z,99990.09
2017-06-09T13:19:49.074Z,99987.20
2017-06-09T13:22:18.932Z,99991.50
2017-06-09T13:24:48.780Z,99991.95
2017-06-09T13:27:18.657Z,99994.36
2017-06-09T13:29:48.508Z,99995.03
2017-06-09T13:32:18.460Z,99993.63
2017-06-09T13:34:48.394Z,99997.78
2017-06-09T13:37:18.259Z,100000.78
2017-06-09T13:39:48.129Z,100012.68
2017-06-09T13:42:18.005Z,100012.96
2017-06-09T13:44:47.910Z,100023.05
2017-06-09T13:47:17.782Z,100035.08
2017-06-09T13:49:47.633Z,100034.61
2017-06-09T13:52:17.556Z,100041.02
2017-06-09T13:54:47.406Z,100041.83
2017-06-09T13:57:17.319Z,100043.05
2017-06-09T13:59:47.163Z,100045.90
2017-06-09T14:02:17.075Z,100045.41
2017-06-09T14:04:46.925Z,100051.66
2017-06-09T14:07:16.823Z,100055.91
2017-06-09T14:09:46.707Z,100062.92
2017-06-09T14:12:16.556Z,100061.74
2017-06-09T14:14:46.479Z,100069.17
2017-06-09T14:17:16.330Z,100068.69
2017-06-09T14:19:46.178Z,100068.63
2017-06-09T14:22:16.076Z,100074.42
2017-06-09T14:24:45.939Z,100069.27
2017-06-09T14:27:15.850Z,100095.59
2017-06-09T14:29:45.711Z,100093.32
2017-06-09T14:32:15.564Z,100096.52
2017-06-09T14:34:45.483Z,100102.27
2017-06-09T14:37:15.335Z,100110.17
2017-06-09T14:39:45.238Z,100104.60
2017-06-09T14:42:15.105Z,100108.98
2017-06-09T14:44:44.956Z,100108.73
2017-06-09T14:47:14.851Z,100106.23
2017-06-09T14:49:44.529Z,100105.82
2017-06-09T14:52:14.419Z,100109.94
2017-06-09T14:54:44.268Z,100114.32
2017-06-09T14:57:14.133Z,100107.19
2017-06-09T14:59:44.033Z,100112.14
2017-06-09T15:02:13.881Z,100111.48
2017-06-09T15:04:43.777Z,100115.86
2017-06-09T15:07:13.633Z,100128.19
2017-06-09T15:09:43.495Z,100131.49
2017-06-09T15:12:13.376Z,100141.48
2017-06-09T15:14:43.231Z,100135.02
2017-06-09T15:17:13.131Z,100166.94
2017-06-09T15:19:43.221Z,100177.45
2017-06-09T15:22:13.165Z,100176.53
2017-06-09T15:24:43.037Z,100199.84
2017-06-09T15:27:12.898Z,100211.41
2017-06-09T15:29:42.807Z,100208.96
2017-06-09T15:32:12.663Z,100213.70
2017-06-09T15:34:42.513Z,100219.55
2017-06-09T15:37:12.397Z,100223.03
2017-06-09T15:39:42.260Z,100228.34
2017-06-09T15:42:12.213Z,100220.61
2017-06-09T15:44:42.082Z,100237.45
2017-06-09T15:47:11.941Z,100225.91
2017-06-09T15:49:41.826Z,100231.13
2017-06-09T15:52:11.768Z,100241.13
2017-06-09T15:54:41.703Z,100248.91
2017-06-09T15:57:12.714Z,100245.39
2017-06-09T15:59:43.073Z,100248.56
2017-06-09T16:02:12.927Z,100254.46
2017-06-09T16:04:42.798Z,100259.55
2017-06-09T16:07:12.667Z,100265.51
2017-06-09T16:09:42.536Z,100267.20
2017-06-09T16:12:13.571Z,100264.66
2017-06-09T16:14:43.464Z,100285.50
2017-06-09T16:17:13.318Z,100273.28
2017-06-09T16:19:43.225Z,100277.78
2017-06-09T16:22:13.090Z,100274.32
2017-06-09T16:24:42.812Z,100272.20
2017-06-09T16:27:12.672Z,100278.00
2017-06-09T16:29:46.098Z,100283.43
2017-06-09T16:32:15.974Z,100287.03
2017-06-09T16:34:45.897Z,100280.97
2017-06-09T16:37:15.799Z,100271.77
2017-06-09T16:39:45.687Z,100269.89
2017-06-09T16:42:15.535Z,100281.15
2017-06-09T16:44:45.472Z,100288.88
2017-06-09T16:47:15.486Z,100293.68
2017-06-09T16:49:45.373Z,100302.70
2017-06-09T16:52:15.285Z,100307.98
2017-06-09T16:54:46.790Z,100314.19
2017-06-09T16:57:16.758Z,100337.92
2017-06-09T16:59:46.599Z,100347.33
2017-06-09T17:02:16.467Z,100349.75
2017-06-09T17:04:46.359Z,100361.01
2017-06-09T17:07:16.207Z,100353.54
2017-06-09T17:09:46.136Z,100355.62
2017-06-09T17:12:15.991Z,100348.17
2017-06-09T17:14:45.865Z,100347.65
2017-06-09T17:17:15.875Z,100336.48
2017-06-09T17:19:45.847Z,100343.78
2017-06-09T17:22:15.764Z,100348.64
2017-06-09T17:24:45.621Z,100348.45
2017-06-09T17:27:15.471Z,100349.42
2017-06-09T17:29:45.388Z,100355.83
2017-06-09T17:32:15.259Z,100367.07
2017-06-09T17:34:45.167Z,100370.03
2017-06-09T17:37:15.028Z,100366.36
2017-06-09T17:39:44.884Z,100360.59
2017-06-09T17:42:14.760Z,100365.58
2017-06-09T17:44:44.604Z,100357.98
2017-06-09T17:47:14.512Z,100358.77
2017-06-09T17:49:44.372Z,100357.00
2017-06-09T17:52:14.225Z,100357.64
2017-06-09T17:54:44.165Z,100363.77
2017-06-09T17:57:14.059Z,100374.05
2017-06-09T17:59:43.974Z,100378.53
2017-06-09T18:02:13.829Z,100382.64
2017-06-09T18:04:43.752Z,100382.14
2017-06-09T18:07:13.605Z,100380.80
2017-06-09T18:09:43.476Z,100381.00
2017-06-09T18:12:13.361Z,100380.86
2017-06-09T18:14:43.215Z,100380.45
2017-06-09T18:17:13.145Z,100384.17
2017-06-09T18:19:42.992Z,100383.83
2017-06-09T18:22:12.876Z,100384.87
2017-06-09T18:24:42.842Z,100385.51
2017-06-09T18:27:12.701Z,100386.83
2017-06-09T18:29:42.629Z,100381.72
2017-06-09T18:32:12.488Z,100387.40
2017-06-09T18:34:42.357Z,100386.02
2017-06-09T18:37:12.254Z,100388.88
2017-06-09T18:39:42.126Z,100388.17
2017-06-09T18:42:12.076Z,100390.86
2017-06-09T18:44:41.927Z,100391.16
2017-06-09T18:47:11.840Z,100408.22
2017-06-09T18:49:41.739Z,100416.03
2017-06-09T18:52:11.598Z,100417.09
2017-06-09T18:54:41.491Z,100423.89
2017-06-09T18:57:11.347Z,100430.15
2017-06-09T18:59:41.242Z,100431.69
2017-06-09T19:02:11.090Z,100428.09
2017-06-09T19:04:40.944Z,100430.10
2017-06-09T19:07:10.834Z,100429.49
2017-06-09T19:09:40.688Z,100429.58
2017-06-09T19:12:10.609Z,100432.86
2017-06-09T19:14:40.471Z,100442.91
2017-06-09T19:17:10.327Z,100442.91
2017-06-09T19:19:41.144Z,100448.09
2017-06-09T19:22:10.987Z,100451.86
2017-06-09T19:24:40.888Z,100465.91
2017-06-09T19:27:10.740Z,100470.31
2017-06-09T19:29:40.648Z,100470.52
2017-06-09T19:32:10.511Z,100474.70
2017-06-09T19:34:40.361Z,100480.52
2017-06-09T19:37:10.982Z,100488.27
2017-06-09T19:39:40.570Z,100493.45
2017-06-09T19:42:10.605Z,100494.09
2017-06-09T19:44:40.475Z,100492.70
2017-06-09T19:47:10.334Z,100499.01
2017-06-09T19:49:40.228Z,100508.07
2017-06-09T19:52:10.078Z,100511.08
2017-06-09T19:54:39.974Z,100517.32
2017-06-09T19:57:09.841Z,100514.61
2017-06-09T19:59:39.699Z,100514.83
2017-06-09T20:02:09.589Z,100527.15
2017-06-09T20:04:39.443Z,100532.64
2017-06-09T20:07:09.370Z,100540.72
2017-06-09T20:09:39.215Z,100547.33
2017-06-09T20:12:09.161Z,100533.52
2017-06-09T20:14:39.017Z,100531.63
2017-06-09T20:17:08.895Z,100527.27
2017-06-09T20:19:38.772Z,100520.80
2017-06-09T20:22:08.645Z,100522.50
2017-06-09T20:24:38.636Z,100513.92
2017-06-09T20:27:09.491Z,100503.70
2017-06-09T20:29:39.403Z,100507.09
2017-06-09T20:32:09.255Z,100512.53
2017-06-09T20:34:39.238Z,100504.85
2017-06-09T20:37:09.137Z,100492.43
2017-06-09T20:39:39.035Z,100487.53
2017-06-09T20:42:08.917Z,100480.70
2017-06-09T20:44:38.783Z,100477.08
2017-06-09T20:47:08.686Z,100479.89
2017-06-09T20:49:38.556Z,100484.13
2017-06-09T20:52:08.432Z,100493.39
2017-06-09T20:54:38.316Z,100486.48
2017-06-09T20:57:08.195Z,100482.30
2017-06-09T20:59:38.101Z,100464.61
2017-06-09T21:02:07.953Z,100446.93
2017-06-09T21:04:37.836Z,100474.69
2017-06-09T21:07:07.746Z,100494.78
2017-06-09T21:09:37.592Z,100521.34
2017-06-09T21:12:07.494Z,100523.72
2017-06-09T21:14:37.002Z,100508.38
2017-06-09T21:17:10.024Z,100500.42
2017-06-09T21:19:39.888Z,100514.27
2017-06-09T21:22:09.775Z,100522.77
2017-06-09T21:24:39.656Z,100529.95
2017-06-09T21:27:09.506Z,100532.75
2017-06-09T21:29:39.425Z,100554.94
2017-06-09T21:32:09.290Z,100548.44
2017-06-09T21:34:39.149Z,100551.28
2017-06-09T21:37:09.028Z,100548.76
2017-06-09T21:39:38.923Z,100557.41
2017-06-09T21:42:08.845Z,100544.44
2017-06-09T21:44:38.698Z,100542.50
2017-06-09T21:47:08.568Z,100535.84
2017-06-09T21:49:38.468Z,100544.88
2017-06-09T21:52:08.340Z,100545.81
2017-06-09T21:54:38.231Z,100542.64
2017-06-09T21:57:08.086Z,100553.04
2017-06-09T21:59:37.944Z,100541.73
2017-06-09T22:02:08.036Z,100548.95
2017-06-09T22:04:37.896Z,100545.53
2017-06-09T22:07:07.811Z,100553.03
2017-06-09T22:09:37.660Z,100560.06
2017-06-09T22:12:07.520Z,100558.48
2017-06-09T22:14:37.440Z,100556.91
2017-06-09T22:17:07.295Z,100561.89
2017-06-09T22:19:37.231Z,100579.13
2017-06-09T22:22:07.098Z,100582.77
2017-06-09T22:24:36.973Z,100581.21
2017-06-09T22:27:06.862Z,100579.57
2017-06-09T22:29:36.734Z,100578.38
2017-06-09T22:32:06.646Z,100595.02
2017-06-09T22:34:36.496Z,100585.78
2017-06-09T22:37:06.399Z,100589.39
2017-06-09T22:39:36.283Z,100585.79
2017-06-09T22:42:06.162Z,100598.95
2017-06-09T22:44:36.051Z,100597.02
2017-06-09T22:47:05.911Z,100608.17
2017-06-09T22:49:35.816Z,100613.53
2017-06-09T22:52:05.682Z,100614.83
2017-06-09T22:54:35.576Z,100614.08
2017-06-09T22:57:05.420Z,100608.64
2017-06-09T22:59:35.333Z,100609.86
2017-06-09T23:02:05.283Z,100614.67
2017-06-09T23:04:35.164Z,100616.95
2017-06-09T23:07:05.030Z,100608.81
2017-06-09T23:09:34.933Z,100613.95
2017-06-09T23:12:04.869Z,100614.23
2017-06-09T23:14:34.724Z,100612.64
2017-06-09T23:17:04.659Z,100611.63
2017-06-09T23:19:34.607Z,100621.78
2017-06-09T23:22:04.271Z,100611.81
2017-06-09T23:24:39.692Z,100612.34
2017-06-09T23:27:09.353Z,100616.75
2017-06-09T23:29:41.396Z,100627.50
2017-06-09T23:32:11.055Z,100634.95
2017-06-09T23:34:40.964Z,100640.94
2017-06-09T23:37:10.815Z,100635.16
2017-06-09T23:39:40.672Z,100632.89
2017-06-09T23:42:10.631Z,100635.25
2017-06-09T23:44:40.483Z,100637.78
2017-06-09T23:47:10.441Z,100646.47
2017-06-09T23:49:40.291Z,100642.53
2017-06-09T23:52:10.186Z,100643.82
2017-06-09T23:54:40.080Z,100648.22
2017-06-09T23:57:09.940Z,100656.17
2017-06-09T23:59:39.880Z,100651.51
